Time;durP1;ratioP1;P1;durP2;ratioP2;P2;SDS_P1;SDS_P2;PMS_P1;PMS_P2;Temp;Humidity;BMP_temperature;BMP_pressure;BME280_temperature;BME280_humidity;BME280_pressure;Samples;Min_cycle;Max_cycle;Signal;HPM_P1;HPM_P2
2022/08/02 00:01:20;;;;;;;;;;;;;;;25.60;38.36;100315.19;5040928;28;1156;-36
2022/08/02 00:03:45;;;;;;;;;;;;;;;24.07;39.95;100311.88;5058793;28;1955;-37
2022/08/02 00:06:11;;;;;;;;;;;;;;;23.68;42.75;100318.88;5058996;28;951;-34
2022/08/02 00:08:36;;;;;;;;;;;;;;;24.93;39.50;100318.41;5056471;28;891;-35
2022/08/02 00:11:01;;;;;;;;;;;;;;;25.31;38.52;100312.25;5058428;28;1110;-35
2022/08/02 00:13:27;;;;;;;;;;;;;;;25.61;38.44;100316.84;5058568;28;1160;-35
2022/08/02 00:15:52;;;;;;;;;;;;;;;23.37;44.60;100314.19;5058843;28;1056;-35
2022/08/02 00:18:17;;;;;;;;;;;;;;;24.69;40.15;100314.81;5058263;28;1156;-35
2022/08/02 00:20:42;;;;;;;;;;;;;;;24.99;37.46;100321.41;5058654;28;1017;-35
2022/08/02 00:23:08;;;;;;;;;;;;;;;23.19;44.99;100317.03;5058433;28;1902;-35
2022/08/02 00:25:33;;;;;;;;;;;;;;;24.72;40.03;100321.72;5058092;28;1024;-35
2022/08/02 00:27:58;;;;;;;;;;;;;;;25.40;38.84;100323.78;5058230;28;1152;-35
2022/08/02 00:30:24;;;;;;;;;;;;;;;25.76;38.63;100324.97;5058232;28;1077;-34
2022/08/02 00:32:49;;;;;;;;;;;;;;;23.24;42.62;100323.56;5058159;28;1222;-35
2022/08/02 00:35:14;;;;;;;;;;;;;;;24.31;41.09;100320.91;5058448;28;994;-34
2022/08/02 00:37:40;;;;;;;;;;;;;;;24.89;40.85;100329.69;5058366;28;958;-36
2022/08/02 00:40:05;;;;;;;;;;;;;;;23.46;44.49;100318.56;5058153;28;993;-35
2022/08/02 00:42:31;;;;;;;;;;;;;;;24.68;40.12;100321.22;5058109;28;1894;-36
2022/08/02 00:44:57;;;;;;;;;;;;;;;25.32;38.87;100323.84;5057709;28;933;-36
2022/08/02 00:47:22;;;;;;;;;;;;;;;25.80;38.38;100328.16;5057798;28;989;-35
2022/08/02 00:49:48;;;;;;;;;;;;;;;24.00;39.85;100328.88;5058042;28;1180;-36
2022/08/02 00:52:13;;;;;;;;;;;;;;;23.84;42.17;100328.75;5058463;28;1012;-36
2022/08/02 00:54:38;;;;;;;;;;;;;;;24.89;41.05;100335.06;5058020;28;1199;-36
2022/08/02 00:57:04;;;;;;;;;;;;;;;25.30;38.63;100334.81;5054939;28;958;-36
2022/08/02 00:59:29;;;;;;;;;;;;;;;25.33;39.19;100333.59;5057973;28;1021;-35
2022/08/02 01:01:54;;;;;;;;;;;;;;;23.24;44.01;100339.66;5057688;28;1959;-36
2022/08/02 01:04:19;;;;;;;;;;;;;;;24.41;40.55;100341.34;5058329;28;1029;-36
2022/08/02 01:06:45;;;;;;;;;;;;;;;24.80;40.41;100337.81;5057486;28;1242;-37
2022/08/02 01:09:10;;;;;;;;;;;;;;;25.55;37.70;100342.66;5057345;28;1093;-38
2022/08/02 01:11:35;;;;;;;;;;;;;;;23.97;39.83;100341.63;5057334;28;1219;-38
2022/08/02 01:14:03;;;;;;;;;;;;;;;24.00;41.73;100345.84;5057737;28;1088;-37
2022/08/02 01:16:30;;;;;;;;;;;;;;;24.98;40.14;100349.31;5057581;28;1029;-37
2022/08/02 01:18:57;;;;;;;;;;;;;;;25.46;37.91;100343.75;5055428;28;1088;-37
2022/08/02 01:21:31;;;;;;;;;;;;;;;25.22;36.37;100350.19;5039606;28;979;-37
2022/08/02 01:24:03;;;;;;;;;;;;;;;23.03;45.43;100339.28;5040068;28;1132;-37
2022/08/02 01:26:28;;;;;;;;;;;;;;;24.72;39.82;100340.56;5057039;28;1143;-36
2022/08/02 01:28:53;;;;;;;;;;;;;;;25.37;38.59;100342.16;5057609;28;1187;-38
2022/08/02 01:31:24;;;;;;;;;;;;;;;25.77;37.90;100337.44;5056749;28;1089;-36
2022/08/02 01:33:58;;;;;;;;;;;;;;;23.48;40.86;100342.53;5050921;28;1006;-37
2022/08/02 01:36:23;;;;;;;;;;;;;;;24.40;40.41;100337.84;5034081;28;1045;-37
2022/08/02 01:38:49;;;;;;;;;;;;;;;25.01;40.58;100343.56;5057298;28;1013;-37
2022/08/02 01:41:18;;;;;;;;;;;;;;;25.66;37.51;100351.34;5038850;28;1188;-36
2022/08/02 01:43:43;;;;;;;;;;;;;;;24.73;38.05;100344.06;5038762;28;1905;-37
2022/08/02 01:46:09;;;;;;;;;;;;;;;23.55;43.01;100337.34;5057021;28;1211;-36
2022/08/02 01:48:34;;;;;;;;;;;;;;;25.00;38.77;100342.75;5039072;28;1097;-36
2022/08/02 01:51:00;;;;;;;;;;;;;;;25.37;38.43;100337.63;5054824;28;1406;-36
2022/08/02 01:53:25;;;;;;;;;;;;;;;25.73;38.22;100346.91;5038215;28;1066;-36
2022/08/02 01:55:51;;;;;;;;;;;;;;;23.70;42.73;100329.44;5038414;28;998;-35
2022/08/02 01:58:18;;;;;;;;;;;;;;;24.91;38.96;100347.34;5054363;28;1148;-36
2022/08/02 02:00:43;;;;;;;;;;;;;;;25.16;39.31;100332.88;5049571;28;1029;-36
2022/08/02 02:03:12;;;;;;;;;;;;;;;25.86;37.20;100348.13;5038700;28;1906;-36
2022/08/02 02:05:37;;;;;;;;;;;;;;;23.93;39.92;100336.78;5056981;28;1033;-36
2022/08/02 02:08:03;;;;;;;;;;;;;;;23.94;41.52;100344.66;5054577;28;1107;-35
2022/08/02 02:10:29;;;;;;;;;;;;;;;25.11;39.37;100346.88;5056003;28;1177;-36
2022/08/02 02:12:55;;;;;;;;;;;;;;;25.63;37.41;100349.00;5056744;28;1170;-35
2022/08/02 02:15:21;;;;;;;;;;;;;;;25.55;38.19;100348.06;5038520;28;1276;-34
2022/08/02 02:17:46;;;;;;;;;;;;;;;23.52;43.58;100349.28;5056608;28;1120;-35
2022/08/02 02:20:13;;;;;;;;;;;;;;;24.91;39.18;100347.34;5039775;28;1140;-34
2022/08/02 02:22:38;;;;;;;;;;;;;;;25.18;39.07;100347.00;5056260;28;1914;-34
2022/08/02 02:25:04;;;;;;;;;;;;;;;25.79;37.70;100354.25;5056279;28;1052;-35
2022/08/02 02:27:29;;;;;;;;;;;;;;;23.62;40.42;100348.25;5038576;28;1552;-35
2022/08/02 02:29:54;;;;;;;;;;;;;;;24.35;39.94;100353.66;5056240;28;1021;-34
2022/08/02 02:32:20;;;;;;;;;;;;;;;25.07;39.69;100349.09;5051650;28;1009;-35
2022/08/02 02:34:45;;;;;;;;;;;;;;;25.68;37.48;100352.84;5056718;28;1045;-35
2022/08/02 02:37:17;;;;;;;;;;;;;;;25.05;36.25;100355.69;5038509;28;978;-35
2022/08/02 02:39:42;;;;;;;;;;;;;;;23.78;42.04;100356.28;5038247;28;958;-34
2022/08/02 02:42:08;;;;;;;;;;;;;;;25.01;38.74;100355.19;5055836;28;1905;-35
2022/08/02 02:44:33;;;;;;;;;;;;;;;25.33;38.11;100351.59;5037901;28;1140;-36
2022/08/02 02:46:59;;;;;;;;;;;;;;;25.80;37.65;100357.78;5056451;28;1069;-35
2022/08/02 02:49:24;;;;;;;;;;;;;;;25.95;36.51;100359.66;5038354;28;1156;-37
2022/08/02 02:51:50;;;;;;;;;;;;;;;24.86;37.23;100352.38;5056059;28;1094;-36
2022/08/02 02:54:15;;;;;;;;;;;;;;;23.31;43.26;100355.94;5056839;28;1140;-34
2022/08/02 02:56:40;;;;;;;;;;;;;;;24.68;40.35;100360.72;5047701;28;1253;-37
2022/08/02 02:59:06;;;;;;;;;;;;;;;24.83;42.70;100364.34;5051750;28;1461;-37
2022/08/02 03:01:31;;;;;;;;;;;;;;;25.09;42.63;100367.75;5053532;28;1044;-37
2022/08/02 03:03:58;;;;;;;;;;;;;;;24.82;42.04;100367.22;5055622;28;1890;-36
2022/08/02 03:06:24;;;;;;;;;;;;;;;24.61;42.78;100367.84;5056002;28;961;-37
2022/08/02 03:08:49;;;;;;;;;;;;;;;25.02;43.83;100366.78;5052822;28;1270;-37
2022/08/02 03:11:14;;;;;;;;;;;;;;;25.17;43.74;100362.31;5056285;28;1009;-37
2022/08/02 03:13:40;;;;;;;;;;;;;;;25.38;41.97;100374.28;5056168;28;1156;-37
2022/08/02 03:16:05;;;;;;;;;;;;;;;25.22;41.60;100377.09;5037925;28;1065;-37
2022/08/02 03:18:31;;;;;;;;;;;;;;;24.74;42.74;100365.41;5055852;28;1202;-37
2022/08/02 03:21:00;;;;;;;;;;;;;;;24.88;44.13;100366.50;5059109;28;1159;-38
2022/08/02 03:23:25;;;;;;;;;;;;;;;25.33;42.90;100365.91;5041643;28;1906;-36
2022/08/02 03:25:51;;;;;;;;;;;;;;;25.58;42.01;100367.53;5059687;28;1144;-38
2022/08/02 03:28:16;;;;;;;;;;;;;;;25.66;42.90;100367.50;5059695;28;1069;-39
2022/08/02 03:30:41;;;;;;;;;;;;;;;25.10;42.21;100368.59;5059493;28;970;-38
2022/08/02 03:33:07;;;;;;;;;;;;;;;24.77;43.18;100373.13;5058300;28;861;-38
2022/08/02 03:35:32;;;;;;;;;;;;;;;25.20;43.56;100371.88;5059571;28;1424;-37
2022/08/02 03:37:57;;;;;;;;;;;;;;;25.27;44.38;100370.16;5040745;28;1387;-38
2022/08/02 03:40:22;;;;;;;;;;;;;;;25.47;42.64;100374.22;5041380;28;986;-36
2022/08/02 03:42:48;;;;;;;;;;;;;;;25.44;41.55;100381.63;5041740;28;1906;-38
2022/08/02 03:45:13;;;;;;;;;;;;;;;24.98;42.74;100376.22;5054605;28;1432;-37
2022/08/02 03:47:38;;;;;;;;;;;;;;;25.26;44.17;100381.94;5041681;28;1053;-38
2022/08/02 03:50:04;;;;;;;;;;;;;;;25.39;44.46;100378.63;5059146;28;1049;-38
2022/08/02 03:52:30;;;;;;;;;;;;;;;25.46;41.81;100377.94;5059096;28;1005;-37
2022/08/02 03:54:56;;;;;;;;;;;;;;;25.70;41.09;100385.00;5041347;28;1154;-38
2022/08/02 03:57:21;;;;;;;;;;;;;;;24.90;42.45;100379.78;5041432;28;1044;-37
2022/08/02 03:59:46;;;;;;;;;;;;;;;24.94;44.79;100387.34;5058754;28;1040;-37
2022/08/02 04:02:12;;;;;;;;;;;;;;;25.72;41.84;100385.66;5056416;28;1898;-40
2022/08/02 04:04:37;;;;;;;;;;;;;;;24.70;42.89;100383.75;5060717;28;1037;-39
2022/08/02 04:07:02;;;;;;;;;;;;;;;23.47;47.75;100389.19;5063392;28;1310;-40
2022/08/02 04:09:28;;;;;;;;;;;;;;;24.67;44.17;100389.47;5052759;28;1268;-42
2022/08/02 04:11:53;;;;;;;;;;;;;;;25.21;44.71;100392.41;5058782;28;1365;-41
2022/08/02 04:14:18;;;;;;;;;;;;;;;25.25;42.14;100387.50;5058534;28;849;-42
2022/08/02 04:16:44;;;;;;;;;;;;;;;25.68;41.30;100387.88;5038478;28;1229;-45
2022/08/02 04:19:11;;;;;;;;;;;;;;;25.86;40.58;100389.38;5040679;28;990;-46
2022/08/02 04:21:38;;;;;;;;;;;;;;;25.90;40.72;100392.53;5039583;28;1918;-43
2022/08/02 04:24:03;;;;;;;;;;;;;;;26.35;39.60;100391.75;5039957;28;1149;-44
2022/08/02 04:26:29;;;;;;;;;;;;;;;26.29;39.20;100391.44;5057929;28;1001;-44
2022/08/02 04:28:54;;;;;;;;;;;;;;;26.33;39.05;100394.66;5039637;28;1236;-45
2022/08/02 04:31:20;;;;;;;;;;;;;;;26.17;39.42;100401.03;5035699;28;1494;-43
2022/08/02 04:33:45;;;;;;;;;;;;;;;26.28;39.60;100392.47;5053444;28;1009;-44
2022/08/02 04:36:13;;;;;;;;;;;;;;;26.05;39.46;100387.19;5058320;28;1123;-44
2022/08/02 04:38:38;;;;;;;;;;;;;;;26.26;39.67;100394.53;5057878;28;977;-44
2022/08/02 04:41:03;;;;;;;;;;;;;;;26.71;38.75;100399.06;5039737;28;970;-43
2022/08/02 04:43:29;;;;;;;;;;;;;;;26.63;38.90;100394.63;5062868;28;1947;-43
2022/08/02 04:45:54;;;;;;;;;;;;;;;26.56;38.77;100396.38;5051894;28;889;-39
2022/08/02 04:48:19;;;;;;;;;;;;;;;26.64;38.69;100387.38;5057272;28;1021;-41
2022/08/02 04:50:45;;;;;;;;;;;;;;;26.71;38.41;100393.66;5063009;28;970;-40
2022/08/02 04:53:10;;;;;;;;;;;;;;;26.55;38.84;100391.19;5057105;28;1028;-40
2022/08/02 04:55:35;;;;;;;;;;;;;;;26.69;38.77;100392.19;5057304;28;1019;-40
2022/08/02 04:58:01;;;;;;;;;;;;;;;26.90;38.14;100394.09;5058570;28;894;-43
2022/08/02 05:00:26;;;;;;;;;;;;;;;27.10;38.12;100388.97;5056056;28;1104;-43
2022/08/02 05:02:52;;;;;;;;;;;;;;;27.13;37.92;100387.72;5057191;28;1965;-44
2022/08/02 05:05:17;;;;;;;;;;;;;;;27.26;38.08;100384.31;5061384;28;981;-42
2022/08/02 05:07:42;;;;;;;;;;;;;;;27.35;38.66;100383.19;5056764;28;969;-47
2022/08/02 05:10:08;;;;;;;;;;;;;;;27.45;39.16;100376.59;5060106;28;1120;-42
2022/08/02 05:12:33;;;;;;;;;;;;;;;27.30;39.23;100384.78;5059695;28;1021;-39
2022/08/02 05:14:58;;;;;;;;;;;;;;;27.29;38.20;100375.84;5052970;28;1224;-38
2022/08/02 05:17:23;;;;;;;;;;;;;;;27.16;38.22;100381.13;5062195;28;1129;-40
2022/08/02 05:19:49;;;;;;;;;;;;;;;27.36;37.77;100370.50;5058018;28;1006;-36
2022/08/02 05:22:14;;;;;;;;;;;;;;;27.41;38.54;100376.16;5061619;28;1907;-38
2022/08/02 05:24:39;;;;;;;;;;;;;;;27.54;38.95;100375.44;5059468;28;1005;-38
2022/08/02 05:27:05;;;;;;;;;;;;;;;27.71;38.38;100369.78;5057568;28;1250;-38
2022/08/02 05:29:30;;;;;;;;;;;;;;;27.71;38.24;100370.59;5057052;28;1040;-38
2022/08/02 05:31:55;;;;;;;;;;;;;;;27.68;37.63;100378.22;5060463;28;1219;-38
2022/08/02 05:34:20;;;;;;;;;;;;;;;27.34;38.64;100381.47;5051431;28;898;-37
2022/08/02 05:36:46;;;;;;;;;;;;;;;27.07;38.63;100380.41;5055616;28;1005;-37
2022/08/02 05:39:11;;;;;;;;;;;;;;;26.92;38.52;100383.13;5056532;28;1171;-38
2022/08/02 05:41:36;;;;;;;;;;;;;;;26.88;38.42;100388.06;5056726;28;1104;-37
2022/08/02 05:44:02;;;;;;;;;;;;;;;26.81;38.14;100385.28;5054313;28;1917;-37
2022/08/02 05:46:27;;;;;;;;;;;;;;;26.76;38.39;100385.84;5056030;28;898;-37
2022/08/02 05:48:53;;;;;;;;;;;;;;;26.90;38.25;100394.94;5056084;28;978;-37
2022/08/02 05:51:36;;;;;;;;;;;;;;;27.10;37.71;100390.81;5055979;28;970;-37
2022/08/02 05:54:06;;;;;;;;;;;;;;;27.34;37.39;100386.06;5056134;28;938;-37
2022/08/02 05:56:33;;;;;;;;;;;;;;;27.45;37.33;100390.09;5036906;28;1077;-37
2022/08/02 05:59:02;;;;;;;;;;;;;;;27.49;37.11;100389.50;5055551;28;830;-37
2022/08/02 06:01:30;;;;;;;;;;;;;;;27.53;37.71;100399.97;5056213;28;1278;-37
2022/08/02 06:03:56;;;;;;;;;;;;;;;27.47;37.49;100410.50;5038491;28;1913;-36
2022/08/02 06:06:22;;;;;;;;;;;;;;;27.32;37.30;100402.47;5037320;28;1211;-37
2022/08/02 06:08:49;;;;;;;;;;;;;;;27.14;37.53;100414.53;5056193;28;1048;-36
2022/08/02 06:11:19;;;;;;;;;;;;;;;27.00;37.63;100407.28;5055763;28;962;-37
2022/08/02 06:13:45;;;;;;;;;;;;;;;27.12;37.57;100421.16;5055628;28;1005;-37
2022/08/02 06:16:10;;;;;;;;;;;;;;;27.08;37.04;100420.69;5055190;28;1021;-37
2022/08/02 06:18:36;;;;;;;;;;;;;;;27.10;37.40;100421.34;5056092;28;970;-37
2022/08/02 06:21:02;;;;;;;;;;;;;;;27.23;37.29;100425.22;5063842;28;970;-37
2022/08/02 06:23:27;;;;;;;;;;;;;;;27.34;37.43;100422.00;5054387;28;1973;-36
2022/08/02 06:25:53;;;;;;;;;;;;;;;27.49;37.02;100427.34;5055342;28;1188;-37
2022/08/02 06:28:18;;;;;;;;;;;;;;;27.60;36.84;100426.00;5055692;28;1057;-37
2022/08/02 06:30:44;;;;;;;;;;;;;;;27.60;36.94;100438.66;5055717;28;1136;-37
2022/08/02 06:33:09;;;;;;;;;;;;;;;27.59;36.81;100423.50;5055848;28;1031;-37
2022/08/02 06:35:43;;;;;;;;;;;;;;;27.28;37.58;100424.66;5051654;28;1006;-37
2022/08/02 06:38:09;;;;;;;;;;;;;;;27.25;37.40;100432.09;5049754;28;986;-36
2022/08/02 06:40:52;;;;;;;;;;;;;;;27.07;37.28;100426.28;5038057;28;947;-36
2022/08/02 06:43:30;;;;;;;;;;;;;;;27.11;37.15;100424.91;5056800;28;1910;-37
2022/08/02 06:45:55;;;;;;;;;;;;;;;27.18;37.00;100427.66;5035559;28;977;-37
2022/08/02 06:48:20;;;;;;;;;;;;;;;27.26;37.09;100430.22;5055360;28;1005;-37
2022/08/02 06:50:46;;;;;;;;;;;;;;;27.43;36.52;100420.00;5037628;28;1002;-37
2022/08/02 06:53:11;;;;;;;;;;;;;;;27.57;36.79;100422.84;5055905;28;1148;-37
2022/08/02 06:55:36;;;;;;;;;;;;;;;27.65;36.69;100424.56;5057868;28;954;-36
2022/08/02 06:58:02;;;;;;;;;;;;;;;27.57;36.16;100431.78;5059356;28;1108;-37
2022/08/02 07:00:28;;;;;;;;;;;;;;;27.26;36.60;100431.06;5059722;28;989;-37
2022/08/02 07:02:53;;;;;;;;;;;;;;;27.31;36.53;100435.06;5059271;28;2267;-36
2022/08/02 07:05:19;;;;;;;;;;;;;;;27.19;36.56;100442.84;5059472;28;986;-37
2022/08/02 07:07:44;;;;;;;;;;;;;;;27.24;36.95;100440.41;5058739;28;950;-37
2022/08/02 07:10:10;;;;;;;;;;;;;;;27.16;36.85;100435.13;5056885;28;1159;-36
2022/08/02 07:12:35;;;;;;;;;;;;;;;27.27;36.81;100437.31;5059000;28;1040;-37
2022/08/02 07:15:01;;;;;;;;;;;;;;;27.47;36.96;100434.81;5059510;28;1136;-37
2022/08/02 07:17:27;;;;;;;;;;;;;;;27.63;37.03;100430.16;5051891;28;1116;-37
2022/08/02 07:19:52;;;;;;;;;;;;;;;27.65;36.52;100427.25;5063387;28;1010;-36
2022/08/02 07:22:21;;;;;;;;;;;;;;;27.41;36.78;100432.06;5061727;28;1901;-37
2022/08/02 07:24:47;;;;;;;;;;;;;;;27.25;36.53;100429.41;5058911;28;946;-36
2022/08/02 07:27:12;;;;;;;;;;;;;;;27.23;36.17;100434.16;5058143;28;962;-37
2022/08/02 07:29:38;;;;;;;;;;;;;;;27.22;36.53;100440.59;5058849;28;958;-36
2022/08/02 07:32:03;;;;;;;;;;;;;;;27.13;36.66;100442.56;5058894;28;1064;-36
2022/08/02 07:34:28;;;;;;;;;;;;;;;27.13;36.73;100441.72;5058529;28;1124;-37
2022/08/02 07:36:54;;;;;;;;;;;;;;;27.09;37.04;100443.97;5058569;28;1034;-37
2022/08/02 07:39:19;;;;;;;;;;;;;;;27.34;36.49;100440.91;5058135;28;1250;-37
2022/08/02 07:41:45;;;;;;;;;;;;;;;27.51;36.66;100441.50;5058672;28;1899;-37
2022/08/02 07:44:10;;;;;;;;;;;;;;;27.62;36.94;100434.75;5058694;28;1041;-37
2022/08/02 07:46:35;;;;;;;;;;;;;;;27.69;36.77;100434.00;5056010;28;942;-36
2022/08/02 07:49:01;;;;;;;;;;;;;;;27.78;36.84;100440.09;5058350;28;1135;-37
2022/08/02 07:51:26;;;;;;;;;;;;;;;27.72;36.71;100442.56;5058647;28;1227;-36
2022/08/02 07:53:51;;;;;;;;;;;;;;;27.77;36.74;100438.41;5058695;28;994;-37
2022/08/02 07:56:17;;;;;;;;;;;;;;;27.81;36.86;100434.31;5058259;28;1132;-37
2022/08/02 07:58:42;;;;;;;;;;;;;;;27.77;36.95;100430.31;5058095;28;1029;-37
2022/08/02 08:01:08;;;;;;;;;;;;;;;27.90;37.08;100437.69;5058200;28;1219;-37
2022/08/02 08:03:33;;;;;;;;;;;;;;;27.86;36.79;100438.06;5033845;28;1902;-38
2022/08/02 08:05:59;;;;;;;;;;;;;;;28.04;37.08;100427.81;5057920;28;958;-41
2022/08/02 08:08:24;;;;;;;;;;;;;;;28.15;36.67;100434.53;5058137;28;1044;-40
2022/08/02 08:10:49;;;;;;;;;;;;;;;28.14;36.75;100438.28;5057855;28;1099;-42
2022/08/02 08:13:15;;;;;;;;;;;;;;;28.14;37.14;100433.72;5062826;28;897;-40
2022/08/02 08:15:41;;;;;;;;;;;;;;;28.08;37.35;100440.75;5062207;28;1094;-41
2022/08/02 08:18:06;;;;;;;;;;;;;;;28.10;37.99;100443.25;5058147;28;1021;-41
2022/08/02 08:20:32;;;;;;;;;;;;;;;28.17;37.61;100438.72;5056777;28;986;-41
2022/08/02 08:22:57;;;;;;;;;;;;;;;27.94;37.59;100442.53;5061569;28;1906;-39
2022/08/02 08:25:22;;;;;;;;;;;;;;;27.91;37.01;100437.50;5061870;28;923;-40
2022/08/02 08:27:48;;;;;;;;;;;;;;;27.72;36.81;100429.03;5060787;28;1017;-40
2022/08/02 08:30:14;;;;;;;;;;;;;;;27.61;37.09;100435.75;5056944;28;1551;-39
2022/08/02 08:32:39;;;;;;;;;;;;;;;27.43;37.55;100435.38;5059624;28;1159;-40
2022/08/02 08:35:06;;;;;;;;;;;;;;;27.43;38.01;100443.47;5058544;28;1073;-40
2022/08/02 08:37:34;;;;;;;;;;;;;;;27.57;37.79;100431.78;5060596;28;1118;-38
2022/08/02 08:40:00;;;;;;;;;;;;;;;27.59;37.62;100427.00;5059553;28;981;-40
2022/08/02 08:42:29;;;;;;;;;;;;;;;27.88;37.49;100435.19;5058183;28;1969;-40
2022/08/02 08:44:55;;;;;;;;;;;;;;;27.99;38.12;100431.94;5057422;28;1143;-39
2022/08/02 08:47:20;;;;;;;;;;;;;;;27.97;37.34;100423.22;5057015;28;1120;-39
2022/08/02 08:49:46;;;;;;;;;;;;;;;27.84;37.03;100431.22;5056748;28;1016;-39
2022/08/02 08:52:11;;;;;;;;;;;;;;;27.63;37.47;100422.06;5045510;28;955;-40
2022/08/02 08:54:37;;;;;;;;;;;;;;;27.73;37.55;100419.91;5044465;28;1121;-40
2022/08/02 08:57:05;;;;;;;;;;;;;;;27.64;37.58;100415.63;5039060;28;1013;-39
2022/08/02 08:59:31;;;;;;;;;;;;;;;27.79;37.55;100418.28;5059144;28;1154;-38
2022/08/02 09:01:56;;;;;;;;;;;;;;;28.13;37.64;100413.09;5061401;28;1902;-40
2022/08/02 09:04:22;;;;;;;;;;;;;;;27.85;37.14;100416.66;5040134;28;1158;-40
2022/08/02 09:06:47;;;;;;;;;;;;;;;27.85;36.40;100417.50;5056833;28;1048;-39
2022/08/02 09:09:12;;;;;;;;;;;;;;;27.68;36.58;100425.03;5056646;28;1247;-38
2022/08/02 09:11:37;;;;;;;;;;;;;;;27.85;36.31;100416.66;5056020;28;990;-39
2022/08/02 09:14:03;;;;;;;;;;;;;;;27.72;36.51;100418.22;5062470;28;969;-39
2022/08/02 09:16:36;;;;;;;;;;;;;;;27.72;37.11;100417.38;5060972;28;974;-39
2022/08/02 09:19:20;;;;;;;;;;;;;;;27.67;36.92;100417.09;5055935;28;1006;-39
2022/08/02 09:21:45;;;;;;;;;;;;;;;27.91;36.73;100410.44;5056553;28;1044;-38
2022/08/02 09:24:17;;;;;;;;;;;;;;;28.03;37.07;100410.75;5065554;28;1918;-38
2022/08/02 09:26:43;;;;;;;;;;;;;;;28.03;36.69;100409.94;5056362;28;977;-40
2022/08/02 09:29:08;;;;;;;;;;;;;;;27.92;36.80;100405.88;5060502;28;1044;-39
2022/08/02 09:31:33;;;;;;;;;;;;;;;27.98;36.64;100414.06;5059370;28;978;-40
2022/08/02 09:33:59;;;;;;;;;;;;;;;27.91;36.48;100407.75;5057163;28;1073;-39
2022/08/02 09:36:24;;;;;;;;;;;;;;;28.03;36.46;100402.63;5059136;28;863;-40
2022/08/02 09:38:57;;;;;;;;;;;;;;;27.84;36.51;100402.28;5056749;28;993;-40
2022/08/02 09:41:23;;;;;;;;;;;;;;;27.83;37.03;100405.19;5054011;28;1551;-38
2022/08/02 09:43:48;;;;;;;;;;;;;;;28.40;36.76;100409.75;5053389;28;1906;-39
2022/08/02 09:46:16;;;;;;;;;;;;;;;28.25;36.53;100410.69;5056003;28;969;-37
2022/08/02 09:49:01;;;;;;;;;;;;;;;28.08;36.89;100405.59;5055404;28;921;-39
2022/08/02 09:51:29;;;;;;;;;;;;;;;27.90;36.73;100411.50;5060146;28;1135;-39
2022/08/02 09:53:55;;;;;;;;;;;;;;;27.98;37.05;100403.25;5049280;28;1096;-38
2022/08/02 09:56:20;;;;;;;;;;;;;;;28.14;36.73;100409.38;5052569;28;1206;-40
2022/08/02 09:58:46;;;;;;;;;;;;;;;28.06;36.68;100413.06;5055742;28;1052;-38
2022/08/02 10:01:11;;;;;;;;;;;;;;;27.98;36.82;100408.66;5054167;28;883;-39
2022/08/02 10:03:36;;;;;;;;;;;;;;;28.21;36.72;100407.53;5057690;28;1969;-39
2022/08/02 10:06:03;;;;;;;;;;;;;;;28.23;36.23;100393.81;5037151;28;983;-37
2022/08/02 10:08:28;;;;;;;;;;;;;;;28.03;36.68;100399.94;5055882;28;1223;-39
2022/08/02 10:11:00;;;;;;;;;;;;;;;27.81;36.95;100399.97;5055324;28;1053;-36
2022/08/02 10:13:29;;;;;;;;;;;;;;;27.92;36.53;100397.78;5054862;28;859;-39
2022/08/02 10:15:55;;;;;;;;;;;;;;;27.95;36.49;100397.38;5055634;28;1053;-38
2022/08/02 10:18:20;;;;;;;;;;;;;;;28.00;36.23;100392.22;5055493;28;1002;-38
2022/08/02 10:20:46;;;;;;;;;;;;;;;28.23;35.29;100400.06;5055421;28;1234;-39
2022/08/02 10:23:12;;;;;;;;;;;;;;;28.17;35.93;100390.06;5036967;28;1983;-39
2022/08/02 10:25:37;;;;;;;;;;;;;;;28.27;35.58;100395.09;5055268;28;889;-39
2022/08/02 10:28:03;;;;;;;;;;;;;;;28.38;36.20;100401.84;5055287;28;1032;-37
2022/08/02 10:30:29;;;;;;;;;;;;;;;28.28;36.63;100398.66;5036493;28;1045;-39
2022/08/02 10:32:55;;;;;;;;;;;;;;;28.15;36.28;100394.81;5034020;28;1050;-39
2022/08/02 10:35:21;;;;;;;;;;;;;;;28.18;36.10;100389.00;5054621;28;977;-40
2022/08/02 10:37:46;;;;;;;;;;;;;;;28.31;35.49;100384.72;5057291;28;900;-40
2022/08/02 10:40:25;;;;;;;;;;;;;;;28.24;36.16;100384.69;5036992;28;1077;-40
2022/08/02 10:42:54;;;;;;;;;;;;;;;28.32;35.99;100384.50;5056321;28;1926;-40
2022/08/02 10:45:20;;;;;;;;;;;;;;;28.49;36.17;100392.31;5054883;28;1036;-39
2022/08/02 10:48:04;;;;;;;;;;;;;;;28.54;36.65;100391.72;5054789;28;1067;-40
2022/08/02 10:50:45;;;;;;;;;;;;;;;28.33;36.45;100386.22;5055072;28;990;-39
2022/08/02 10:53:19;;;;;;;;;;;;;;;28.34;35.92;100392.47;5054939;28;1167;-40
2022/08/02 10:55:45;;;;;;;;;;;;;;;28.29;36.00;100400.31;5049208;28;954;-39
2022/08/02 10:58:20;;;;;;;;;;;;;;;28.40;35.70;100397.06;5055089;28;1112;-41
2022/08/02 11:00:46;;;;;;;;;;;;;;;28.35;36.19;100399.53;5055931;28;1051;-39
2022/08/02 11:03:43;;;;;;;;;;;;;;;28.39;36.08;100397.25;5054915;28;1905;-40
2022/08/02 11:06:13;;;;;;;;;;;;;;;28.67;35.79;100399.06;5019530;28;1417;-40
2022/08/02 11:08:38;;;;;;;;;;;;;;;28.87;35.84;100401.84;5054747;28;962;-40
2022/08/02 11:11:09;;;;;;;;;;;;;;;28.98;35.25;100400.41;5064748;28;1202;-39
2022/08/02 11:13:53;;;;;;;;;;;;;;;28.85;34.99;100401.19;4995035;28;8067;-40
2022/08/02 11:16:18;;;;;;;;;;;;;;;28.88;35.36;100394.56;4979801;28;7973;-37
2022/08/02 11:18:49;;;;;;;;;;;;;;;28.74;35.57;100394.50;5014147;28;1120;-38
2022/08/02 11:21:27;;;;;;;;;;;;;;;28.59;35.65;100402.78;5003113;28;940;-38
2022/08/02 11:23:53;;;;;;;;;;;;;;;28.53;35.89;100390.06;5014266;28;1918;-38
2022/08/02 11:26:30;;;;;;;;;;;;;;;28.88;36.76;100400.78;5011481;28;963;-38
2022/08/02 11:28:56;;;;;;;;;;;;;;;28.70;36.07;100398.66;4997066;28;1420;-38
2022/08/02 11:31:21;;;;;;;;;;;;;;;28.71;35.64;100400.34;5006968;28;1010;-38
2022/08/02 11:33:49;;;;;;;;;;;;;;;28.82;35.32;100404.31;5014571;28;1019;-38
2022/08/02 11:36:15;;;;;;;;;;;;;;;29.01;35.38;100410.03;5006197;28;1021;-36
2022/08/02 11:38:40;;;;;;;;;;;;;;;28.93;35.16;100394.75;5010641;28;1121;-38
2022/08/02 11:41:06;;;;;;;;;;;;;;;28.67;35.29;100394.47;5008925;28;806;-38
2022/08/02 11:43:31;;;;;;;;;;;;;;;28.55;35.77;100402.34;5018418;28;1898;-41
2022/08/02 11:45:56;;;;;;;;;;;;;;;28.66;35.26;100403.63;5015110;28;1094;-39
2022/08/02 11:48:34;;;;;;;;;;;;;;;28.80;35.73;100399.09;5008621;28;1053;-40
2022/08/02 11:51:03;;;;;;;;;;;;;;;28.94;36.22;100401.84;5015159;28;1255;-39
2022/08/02 11:53:28;;;;;;;;;;;;;;;29.05;35.91;100397.72;5012153;28;1237;-39
2022/08/02 11:55:55;;;;;;;;;;;;;;;29.09;35.88;100396.31;5016819;28;1181;-39
2022/08/02 11:58:20;;;;;;;;;;;;;;;29.15;36.18;100405.47;5016006;28;1292;-39
2022/08/02 12:00:46;;;;;;;;;;;;;;;29.12;35.70;100392.34;5016173;28;1236;-37
2022/08/02 12:03:11;;;;;;;;;;;;;;;28.94;35.25;100404.56;5017918;28;1965;-39
2022/08/02 12:05:36;;;;;;;;;;;;;;;28.43;32.71;100407.47;5015635;28;931;-41
2022/08/02 12:08:04;;;;;;;;;;;;;;;28.58;33.50;100410.03;5010277;28;1200;-38
2022/08/02 12:10:29;;;;;;;;;;;;;;;29.02;33.88;100400.84;5016164;28;1308;-39
2022/08/02 12:12:55;;;;;;;;;;;;;;;29.18;34.05;100422.13;5012479;28;1326;-38
2022/08/02 12:15:47;;;;;;;;;;;;;;;29.24;33.85;100419.66;5014563;28;1244;-37
2022/08/02 12:21:03;;;;;;;;;;;;;;;28.28;34.26;100401.34;5004012;28;864;-39
2022/08/02 12:23:29;;;;;;;;;;;;;;;28.67;34.13;100408.00;5016251;28;1973;-37
2022/08/02 12:26:03;;;;;;;;;;;;;;;29.04;34.05;100418.59;5007369;28;912;-38
2022/08/02 12:28:31;;;;;;;;;;;;;;;28.90;32.66;100389.75;5012365;28;1051;-36
2022/08/02 12:30:57;;;;;;;;;;;;;;;29.03;33.64;100392.53;5009601;28;975;-39
2022/08/02 12:33:23;;;;;;;;;;;;;;;29.20;33.50;100392.13;5011594;28;1122;-39
2022/08/02 12:35:48;;;;;;;;;;;;;;;29.25;33.70;100378.81;5013544;28;967;-39
2022/08/02 12:38:14;;;;;;;;;;;;;;;29.33;34.05;100392.16;5004262;28;1184;-37
2022/08/02 12:40:39;;;;;;;;;;;;;;;29.36;33.99;100385.50;5005954;28;1176;-38
2022/08/02 12:43:05;;;;;;;;;;;;;;;29.31;34.06;100386.09;5010588;28;1894;-39
2022/08/02 12:45:49;;;;;;;;;;;;;;;29.40;34.15;100384.03;5001997;28;1034;-38
2022/08/02 12:48:16;;;;;;;;;;;;;;;29.32;34.25;100385.09;4999862;28;1018;-38
2022/08/02 12:50:42;;;;;;;;;;;;;;;29.62;34.27;100385.72;4999946;28;1028;-37